Reynolds, ND

4:34 AM CST on January 28, 2015 (GMT -0600)
APRSWXNET Grand Forks ND US | Change Station
CLOSE
Current Station
Personal Weather Station
Location: Grand Forks Air Force Base, ND
Elevation: 846 ft
Nearby Weather Stations

Elev 846 ft 47.89 °N, 97.16 °W | Updated 42 minutes ago

Overcast
Overcast
33 °F
Feels Like 33 °F
N
3
Wind Variable Wind from SSE
Gusts 8.0 mph

Today
High -- | Low -- °F
--% Chance of Precip.
Yesterday
High -- | Low -- °F
Precip. -- in
8:00 AM 5:22 PM
Waxing Gibbous, 63% visible
Pressure 29.82 in
Visibility 5.0 miles
Clouds Overcast 400 ft
Windchill 33 °F
Dew Point 32 °F
Humidity 96%
Rainfall 0.00 in
Snow Depth Not available.
UV 0 out of 12
Pollen .10 out of 12
Air Quality Not available.
Flu Activity Not available.
METAR KGFK 280953Z AUTO 16010KT 5SM BR OVC004 01/00 A2982

More Conditions Fewer Conditions

Pressure 29.82 in
Visibility 5.0 miles
Clouds Overcast 400 ft
Windchill 33 °F
Dew Point 32 °F
Humidity 96%
Rainfall 0.00 in
Snow Depth Not available.
UV 0 out of 12
Pollen .10 out of 12
Air Quality Not available.
Flu Activity Not available.
METAR KGFK 280953Z AUTO 16010KT 5SM BR OVC004 01/00 A2982

More Conditions Fewer Conditions

10-Day Weather Forecast

Almanac

Astronomy

Jan. 28, 2015 Rise Set
Actual Time
Civil Twilight
Nautical Twilight
Astronomical Twilight
Moon
Length of Visible Light
Length of Day
Tomorrow will be .
, % of the Moon is Illuminated

Today's Extremes

State Highs State Lows

Community

WunderPhotos

Upload Photos

1,791,121 photos uploaded!

WunderBlogs® & News

Nearby

Air Quality

  Air Quality AQ Index Pollutant
Not available.

Snow Depth

Station Depth Elevation

Earthquake Activity

City Distance Mag. Time & Date
Minimum magnitude displayed is 2.5.

Coastal Water Temperatures

Place Temperature

Nearby Weather Stations